Carolina, PR (00979)

9:13 PM AST on April 28, 2017 (GMT -0400)
Isla Verde Atlantic View Calle Uranio | | Change Station

Elev 0 ft 18.45 °N, 66.04 °W | Updated 3 seconds ago

Rain
Rain
76.4 °F
Feels Like 77 °F
N
0.0
Wind Variable Wind from ESE
Gusts 0.0 mph

Today
High -- | Low -- °F
--% Chance of Precip.
Yesterday
High -- | Low -- °F
Precip. -- in
Pressure 30.07 in
Visibility 10.0 miles
Clouds Few 2400 ft
Scattered Clouds 4600 ft
Scattered Clouds 11000 ft
Heat Index 77 °F
Dew Point 74 °F
Humidity 94%
Rainfall 0.43 in
Snow Depth Not available.
5:58 AM 6:44 PM
Waxing Crescent, 9% visible
METAR TJSJ 290056Z 13003KT 10SM FEW024 SCT046 SCT110 25/25 A3007 RMK AO2 RAE50 SLP182 VCSH SE SW NW P0020 T02500250
Pressure 30.07 in
Visibility 10.0 miles
Clouds Few 2400 ft
Scattered Clouds 4600 ft
Scattered Clouds 11000 ft
Heat Index 77 °F
Dew Point 74 °F
Humidity 94%
Rainfall 0.43 in
Snow Depth Not available.
5:58 AM 6:44 PM
Waxing Crescent, 9% visible
METAR TJSJ 290056Z 13003KT 10SM FEW024 SCT046 SCT110 25/25 A3007 RMK AO2 RAE50 SLP182 VCSH SE SW NW P0020 T02500250

Get Severe Weather Alerts

Thanks for signing up!

Be on the lookout for a verification email in your inbox.

You'll start receiving the daily forecast at 8 AM.

×

10-Day Weather Forecast

Almanac

Astronomy

Apr. 28, 2017 Rise Set
Actual Time
Civil Twilight
Nautical Twilight
Astronomical Twilight
Moon
Length of Visible Light
Length of Day
Tomorrow will be .
, % of the Moon is Illuminated

Today's Extremes

State Highs State Lows

Community

WunderPhotos

WunderBlog® & News

Nearby

Air Quality

  Air Quality AQ Index Pollutant
Not available.

Snow Depth

Station Depth Elevation

Earthquake Activity

City Distance Mag. Time & Date
Minimum magnitude displayed is 2.5.

Coastal Water Temperatures

Place Temperature

Stations

Nearby Weather Stations

Station Location Temp. Windchill Dew Point Humidity Wind Precip. Elev Updated Type
                   

Watches & Warnings

There are currently no watches in effect.